Time;durP1;ratioP1;P1;durP2;ratioP2;P2;SDS_P1;SDS_P2;PMS_P1;PMS_P2;Temp;Humidity;BMP_temperature;BMP_pressure;BME280_temperature;BME280_humidity;BME280_pressure;Samples;Min_cycle;Max_cycle;Signal;HPM_P1;HPM_P2
2024/01/26 05:03:03;;;;;;;9.45;3.37;;;;;;;6.73;69.39;101307.19;5607018;31;81394;-55
2024/01/26 05:06:06;;;;;;;8.18;2.55;;;;;;;6.73;69.39;101307.19;5603611;31;33349;-55
2024/01/26 05:09:09;;;;;;;8.75;2.90;;;;;;;6.22;69.73;101309.44;5603752;31;33636;-55
2024/01/26 05:12:11;;;;;;;10.85;4.28;;;;;;;6.18;69.75;101308.28;5603622;31;34333;-55
2024/01/26 05:15:14;;;;;;;12.07;3.37;;;;;;;6.17;70.59;101314.63;5603625;31;34225;-55
2024/01/26 05:18:16;;;;;;;10.20;2.90;;;;;;;6.25;71.40;101314.31;5603628;31;33668;-55
2024/01/26 05:21:19;;;;;;;7.95;2.67;;;;;;;6.21;69.81;101328.31;5603608;31;34117;-55
2024/01/26 05:24:21;;;;;;;7.97;2.72;;;;;;;6.20;69.87;101319.50;5603527;31;34296;-55
2024/01/26 05:27:24;;;;;;;9.75;3.03;;;;;;;6.19;72.57;101322.38;5603493;31;34421;-56
2024/01/26 05:30:26;;;;;;;10.35;2.83;;;;;;;6.25;71.15;101338.25;5603419;31;34237;-56
2024/01/26 05:33:28;;;;;;;6.37;2.37;;;;;;;6.28;69.96;101321.84;5603556;31;33709;-55
2024/01/26 05:36:31;;;;;;;9.65;2.80;;;;;;;6.12;69.27;101327.81;5603352;31;33592;-55
2024/01/26 05:39:33;;;;;;;11.52;3.15;;;;;;;6.10;71.42;101322.72;5603395;31;33611;-56
2024/01/26 05:42:35;;;;;;;10.90;3.30;;;;;;;6.07;70.78;101317.03;5603254;31;33325;-55
2024/01/26 05:45:38;;;;;;;13.25;3.20;;;;;;;6.20;71.53;101326.69;5603248;31;33621;-55
2024/01/26 05:48:44;;;;;;;5.37;2.20;;;;;;;6.15;70.09;101315.91;5603479;31;33701;-55
2024/01/26 05:51:46;;;;;;;;;;;;;;;6.10;69.97;101319.25;5603652;31;33584;-56
2024/01/26 05:54:49;;;;;;;8.10;2.55;;;;;;;6.24;71.39;101325.19;5603177;31;33831;-56
2024/01/26 05:57:51;;;;;;;8.85;2.75;;;;;;;6.28;68.76;101313.03;5603217;31;33528;-56
2024/01/26 06:00:53;;;;;;;9.25;3.05;;;;;;;6.20;68.53;101316.03;5602496;31;33758;-57
2024/01/26 06:03:56;;;;;;;5.62;2.33;;;;;;;6.26;67.63;101313.28;5601377;31;33628;-56
2024/01/26 06:06:59;;;;;;;7.90;2.55;;;;;;;6.34;66.56;101323.59;5600418;31;33581;-57
2024/01/26 06:10:02;;;;;;;4.55;2.15;;;;;;;6.46;66.68;101320.97;5601114;31;33544;-57
2024/01/26 06:13:05;;;;;;;11.25;2.65;;;;;;;6.46;66.50;101320.97;5594805;31;34364;-57
2024/01/26 06:16:13;;;;;;;6.07;1.92;;;;;;;6.49;67.53;101325.81;5589115;31;31716;-57
2024/01/26 06:19:15;;;;;;;6.80;2.60;;;;;;;6.54;67.35;101330.47;5588009;31;33718;-57
2024/01/26 06:22:18;;;;;;;7.80;2.33;;;;;;;6.59;67.98;101333.25;5587337;31;33716;-57
2024/01/26 06:25:20;;;;;;;8.95;2.80;;;;;;;6.59;66.33;101331.41;5587503;31;33745;-56
2024/01/26 06:28:23;;;;;;;7.93;2.40;;;;;;;6.65;66.74;101326.16;5587454;31;33262;-56
2024/01/26 06:31:26;;;;;;;9.43;2.80;;;;;;;6.55;65.63;101343.53;5586282;31;33562;-56
2024/01/26 06:34:29;;;;;;;6.62;2.40;;;;;;;6.72;67.09;101350.84;5579527;31;33570;-57
2024/01/26 06:37:31;;;;;;;11.25;2.55;;;;;;;6.65;65.75;101355.47;5588466;31;34394;-57
2024/01/26 06:40:33;;;;;;;7.15;3.30;;;;;;;6.62;66.36;101358.59;5589131;31;33165;-57
2024/01/26 06:43:36;;;;;;;7.45;2.60;;;;;;;6.74;65.12;101362.91;5577376;31;34215;-56
2024/01/26 06:46:38;;;;;;;8.30;2.17;;;;;;;6.81;65.86;101366.28;5585409;31;33686;-57
2024/01/26 06:49:40;;;;;;;8.70;2.62;;;;;;;6.69;65.53;101372.63;5575534;31;33641;-57
2024/01/26 06:52:43;;;;;;;6.95;2.58;;;;;;;6.58;67.42;101376.91;5578923;31;33616;-56
2024/01/26 06:55:47;;;;;;;7.07;2.17;;;;;;;6.74;68.92;101368.25;5580258;31;33594;-57
2024/01/26 06:58:53;;;;;;;8.25;2.35;;;;;;;6.68;67.53;101365.69;5582561;31;33258;-56
2024/01/26 07:01:55;;;;;;;14.38;2.67;;;;;;;6.94;65.88;101364.44;5588485;31;33693;-56
2024/01/26 07:04:58;;;;;;;15.90;2.35;;;;;;;6.89;64.03;101369.63;5585429;31;33555;-56
2024/01/26 07:08:00;;;;;;;14.35;2.95;;;;;;;7.03;69.64;101357.72;5573457;31;32218;-57
2024/01/26 07:11:03;;;;;;;9.05;2.22;;;;;;;7.49;100.00;101362.19;5581612;31;33711;-57
2024/01/26 07:14:05;;;;;;;7.35;2.20;;;;;;;7.41;68.01;101367.06;5583920;31;33731;-58
2024/01/26 07:17:08;;;;;;;9.50;2.03;;;;;;;7.34;63.71;101369.84;5584569;31;33675;-57
2024/01/26 07:20:10;;;;;;;5.22;2.10;;;;;;;7.35;63.51;101374.16;5581485;31;33618;-57
2024/01/26 07:23:15;;;;;;;7.62;2.28;;;;;;;7.42;63.50;101368.69;5575986;31;33996;-57
2024/01/26 07:26:19;;;;;;;5.05;1.98;;;;;;;7.33;61.76;101380.78;5571012;31;33767;-57
2024/01/26 07:29:21;;;;;;;6.00;2.08;;;;;;;7.35;63.23;101373.31;5580738;31;34391;-56
2024/01/26 07:32:24;;;;;;;8.77;2.37;;;;;;;7.44;64.72;101359.41;5582540;31;33632;-58
2024/01/26 07:35:26;;;;;;;6.37;1.85;;;;;;;7.53;61.09;101373.19;5586511;31;33936;-57
2024/01/26 07:38:28;;;;;;;8.80;2.20;;;;;;;7.46;60.30;101380.53;5587481;31;34342;-57
2024/01/26 07:41:31;;;;;;;8.93;2.28;;;;;;;7.52;62.40;101377.72;5588520;31;34320;-56
2024/01/26 07:44:33;;;;;;;6.35;1.90;;;;;;;7.63;60.08;101376.06;5587660;31;33274;-57
2024/01/26 07:47:36;;;;;;;4.90;2.10;;;;;;;7.50;61.03;101379.81;5584539;31;34365;-56
2024/01/26 07:50:43;;;;;;;5.85;1.90;;;;;;;7.48;59.26;101384.59;5580906;31;34336;-57
2024/01/26 07:53:46;;;;;;;5.72;2.00;;;;;;;7.57;63.26;101393.03;5587814;31;33689;-57
2024/01/26 07:56:48;;;;;;;6.97;2.30;;;;;;;7.50;61.62;101392.34;5585209;31;33768;-57
2024/01/26 07:59:51;;;;;;;5.12;2.12;;;;;;;7.48;60.77;101389.91;5586017;31;32454;-57
2024/01/26 08:02:54;;;;;;;7.70;2.17;;;;;;;7.57;65.42;101384.22;5587172;31;33528;-56
2024/01/26 08:05:56;;;;;;;8.77;2.95;;;;;;;7.57;59.40;101402.87;5587255;31;34435;-56
2024/01/26 08:08:59;;;;;;;5.78;2.10;;;;;;;7.63;59.93;101383.28;5587353;31;33629;-57
2024/01/26 08:12:02;;;;;;;6.60;2.20;;;;;;;7.58;61.69;101383.16;5587314;31;33727;-57
2024/01/26 08:15:06;;;;;;;5.70;2.08;;;;;;;7.61;59.78;101399.50;5586404;31;33706;-57
2024/01/26 08:18:08;;;;;;;5.53;2.00;;;;;;;7.54;61.35;101399.63;5587608;31;33282;-57
2024/01/26 08:21:11;;;;;;;6.62;2.25;;;;;;;7.40;66.49;101382.25;5587313;31;33622;-57
2024/01/26 08:24:14;;;;;;;5.82;1.90;;;;;;;7.40;60.23;101379.59;5586965;31;34236;-56
2024/01/26 08:27:17;;;;;;;5.68;1.77;;;;;;;7.43;60.77;101379.13;5586580;31;33618;-57
2024/01/26 08:30:22;;;;;;;6.05;1.77;;;;;;;7.37;60.60;101372.06;5587460;31;33642;-57
2024/01/26 08:33:25;;;;;;;6.12;2.22;;;;;;;7.45;60.88;101382.37;5587265;31;33355;-57
2024/01/26 08:36:28;;;;;;;6.10;2.00;;;;;;;7.60;64.41;101368.53;5574706;31;33227;-57
2024/01/26 08:39:30;;;;;;;9.75;2.28;;;;;;;7.73;63.57;101372.78;5580296;31;33465;-57
2024/01/26 08:42:33;;;;;;;5.95;2.78;;;;;;;7.81;63.62;101369.75;5587160;31;33632;-57
2024/01/26 08:45:36;;;;;;;5.70;1.92;;;;;;;7.66;59.57;101372.13;5588143;31;34339;-57
2024/01/26 08:48:38;;;;;;;7.87;2.00;;;;;;;7.67;62.14;101361.19;5587687;31;33803;-57
2024/01/26 08:51:43;;;;;;;4.60;2.00;;;;;;;7.70;61.56;101367.94;5590338;31;33573;-57
2024/01/26 08:54:47;;;;;;;5.55;2.03;;;;;;;7.91;62.28;101377.97;5587612;31;34363;-56
2024/01/26 08:57:50;;;;;;;5.43;1.98;;;;;;;7.91;60.02;101388.66;5587831;31;33732;-57
2024/01/26 09:00:53;;;;;;;5.37;1.80;;;;;;;7.91;58.63;101398.50;5595205;31;33600;-57
2024/01/26 09:03:55;;;;;;;6.95;1.80;;;;;;;8.15;61.21;101408.06;5591403;31;33625;-57
2024/01/26 09:06:58;;;;;;;7.97;2.25;;;;;;;8.10;59.83;101415.97;5592569;31;33607;-57
2024/01/26 09:10:11;;;;;;;4.53;2.05;;;;;;;8.18;60.23;101418.28;5595381;31;34246;-56
2024/01/26 09:13:14;;;;;;;3.78;1.92;;;;;;;8.03;57.39;101420.63;5580449;31;33564;-57
2024/01/26 09:16:16;;;;;;;12.57;5.40;;;;;;;8.23;61.49;101415.69;5577012;31;34386;-57
2024/01/26 09:19:19;;;;;;;6.75;3.25;;;;;;;8.26;57.21;101442.97;5583775;31;34307;-57
2024/01/26 09:22:22;;;;;;;7.07;2.20;;;;;;;8.16;57.32;101422.22;5594928;31;33840;-57
2024/01/26 09:25:25;;;;;;;7.62;2.28;;;;;;;8.23;56.64;101417.53;5582976;31;33353;-57
2024/01/26 09:28:27;;;;;;;9.35;2.85;;;;;;;8.52;72.21;101414.91;5579903;31;34390;-57
2024/01/26 09:31:30;;;;;;;6.78;2.25;;;;;;;8.52;59.09;101418.38;5598436;31;33626;-57
2024/01/26 09:34:33;;;;;;;7.47;2.37;;;;;;;8.60;56.56;101425.19;5605250;31;33257;-57
2024/01/26 09:37:36;;;;;;;4.55;2.20;;;;;;;8.72;64.26;101431.28;5586562;31;34269;-55
2024/01/26 09:40:39;;;;;;;6.30;1.90;;;;;;;8.41;56.68;101440.59;5580968;31;33637;-57
2024/01/26 09:43:42;;;;;;;5.45;1.77;;;;;;;8.41;68.15;101430.75;5586260;31;34382;-57
2024/01/26 09:46:44;;;;;;;8.35;2.03;;;;;;;8.53;58.94;101437.88;5588687;31;33627;-57
2024/01/26 09:49:56;;;;;;;4.62;1.90;;;;;;;8.80;62.03;101440.75;5595859;31;33567;-57
2024/01/26 09:52:59;;;;;;;9.02;2.50;;;;;;;8.57;56.37;101441.69;5596732;31;33623;-57
2024/01/26 09:56:02;;;;;;;5.43;2.00;;;;;;;9.02;73.14;101428.28;5587068;31;33658;-57
2024/01/26 09:59:07;;;;;;;6.95;2.58;;;;;;;9.17;64.87;101425.00;5578999;31;33644;-57
2024/01/26 10:02:11;;;;;;;5.25;2.00;;;;;;;9.03;58.31;101427.22;5586172;31;33667;-57
2024/01/26 10:05:16;;;;;;;5.70;2.30;;;;;;;9.01;55.90;101417.84;5578762;31;34292;-57
2024/01/26 10:08:18;;;;;;;4.65;2.00;;;;;;;8.94;55.43;101412.66;5576375;31;33754;-57
2024/01/26 10:11:21;;;;;;;3.33;1.48;;;;;;;8.79;54.09;101415.06;5584509;31;33535;-57
2024/01/26 10:14:23;;;;;;;6.25;2.00;;;;;;;8.80;55.18;101417.50;5578622;31;34193;-57
2024/01/26 10:17:26;;;;;;;9.07;2.10;;;;;;;8.97;54.21;101420.16;5577015;31;33613;-57
2024/01/26 10:20:28;;;;;;;4.87;1.73;;;;;;;8.85;53.86;101406.87;5589137;31;34277;-56
2024/01/26 10:23:31;;;;;;;4.75;1.60;;;;;;;8.74;53.87;101405.12;5590273;31;34312;-57
2024/01/26 10:26:33;;;;;;;4.28;1.52;;;;;;;8.78;54.52;101397.41;5588336;31;33337;-57
2024/01/26 10:29:39;;;;;;;4.07;1.60;;;;;;;9.04;55.82;101396.75;5573193;31;33278;-56
2024/01/26 10:32:44;;;;;;;8.48;2.30;;;;;;;9.08;55.11;101394.41;5587631;31;33616;-55
2024/01/26 10:35:50;;;;;;;4.87;1.77;;;;;;;9.10;53.24;101390.41;5575714;31;33720;-58
2024/01/26 10:38:53;;;;;;;5.72;1.80;;;;;;;8.91;55.09;101387.19;5576444;31;34377;-55
2024/01/26 10:42:06;;;;;;;5.05;1.92;;;;;;;8.96;53.65;101391.00;5575087;31;34283;-54
2024/01/26 10:45:09;;;;;;;6.47;2.03;;;;;;;8.89;54.08;101389.31;5569582;31;34205;-56
2024/01/26 10:48:16;;;;;;;6.00;2.13;;;;;;;8.99;53.98;101387.84;5586558;31;34265;-55
2024/01/26 10:51:19;;;;;;;5.95;1.90;;;;;;;9.09;56.89;101379.97;5585751;31;33761;-55
2024/01/26 10:54:25;;;;;;;5.53;1.73;;;;;;;9.17;54.51;101387.56;5569470;32;33564;-55
2024/01/26 10:57:27;;;;;;;4.07;1.58;;;;;;;9.30;55.31;101392.56;5601926;31;33784;-55
2024/01/26 11:00:30;;;;;;;6.05;2.05;;;;;;;9.54;53.99;101390.50;5608713;31;34265;-55
2024/01/26 11:03:33;;;;;;;5.20;1.83;;;;;;;9.59;53.30;101393.22;5604425;31;33617;-56
2024/01/26 11:06:36;;;;;;;6.87;2.47;;;;;;;9.49;53.75;101400.31;5608803;31;33630;-56
2024/01/26 11:09:39;;;;;;;8.43;2.15;;;;;;;9.48;54.87;101393.34;5597838;31;34304;-56
2024/01/26 11:12:41;;;;;;;7.57;2.22;;;;;;;9.37;53.98;101393.22;5588955;31;33702;-56
2024/01/26 11:15:46;;;;;;;4.18;1.80;;;;;;;9.37;53.66;101390.53;5592025;31;33257;-56
2024/01/26 11:18:57;;;;;;;4.60;2.07;;;;;;;9.32;52.77;101377.09;5590965;31;34323;-55
2024/01/26 11:22:04;;;;;;;6.40;2.08;;;;;;;9.46;55.50;101382.06;5592434;31;34238;-56
2024/01/26 11:25:06;;;;;;;;;;;;;;;9.46;52.81;101379.41;5607672;31;34397;-55
2024/01/26 11:28:10;;;;;;;5.25;2.05;;;;;;;9.14;53.36;101362.13;5607876;31;33736;-56
2024/01/26 11:31:13;;;;;;;4.45;1.75;;;;;;;9.08;54.40;101367.66;5581909;31;33719;-55
2024/01/26 11:34:19;;;;;;;8.15;1.95;;;;;;;9.12;54.55;101368.78;5578014;31;33651;-56
2024/01/26 11:37:22;;;;;;;4.47;1.80;;;;;;;9.16;53.33;101357.31;5590024;31;33611;-55
2024/01/26 11:40:24;;;;;;;6.80;2.50;;;;;;;9.22;53.34;101366.25;5588228;31;33762;-57
2024/01/26 11:43:28;;;;;;;7.57;2.37;;;;;;;9.29;53.04;101372.22;5580604;31;33951;-57
2024/01/26 11:46:32;;;;;;;20.37;2.30;;;;;;;9.30;54.47;101375.69;5575282;31;33691;-57
2024/01/26 11:49:36;;;;;;;6.43;2.10;;;;;;;9.18;53.21;101371.28;5578476;31;33732;-56
2024/01/26 11:52:39;;;;;;;5.43;2.20;;;;;;;9.08;53.12;101376.47;5581158;31;34387;-57
2024/01/26 11:55:43;;;;;;;5.30;2.17;;;;;;;9.04;53.14;101355.81;5592448;31;34283;-57
2024/01/26 11:58:46;;;;;;;5.15;1.90;;;;;;;8.92;52.72;101361.28;5589175;31;33825;-57
2024/01/26 12:01:49;;;;;;;6.35;2.35;;;;;;;8.88;52.93;101360.94;5590813;31;33798;-57
2024/01/26 12:04:52;;;;;;;7.35;2.10;;;;;;;8.89;58.40;101354.53;5595316;31;34318;-56
2024/01/26 12:07:55;;;;;;;6.47;2.45;;;;;;;8.80;53.95;101339.16;5582894;31;33762;-57
2024/01/26 12:10:57;;;;;;;5.10;2.15;;;;;;;8.82;54.68;101332.50;5573793;31;34090;-57
2024/01/26 12:14:00;;;;;;;5.45;2.53;;;;;;;8.91;53.96;101331.03;5582133;31;33766;-57
2024/01/26 12:17:04;;;;;;;3.92;1.73;;;;;;;9.00;55.07;101317.25;5584017;31;33695;-57
2024/01/26 12:20:09;;;;;;;3.30;1.80;;;;;;;8.99;53.70;101319.13;5580028;31;33592;-57
2024/01/26 12:23:16;;;;;;;7.00;2.10;;;;;;;9.02;53.66;101313.28;5570283;31;33757;-57
2024/01/26 12:26:18;;;;;;;7.43;2.08;;;;;;;9.18;53.48;101312.41;5575336;31;33644;-57
2024/01/26 12:29:21;;;;;;;5.60;1.77;;;;;;;9.08;52.50;101314.16;5573611;31;33606;-57
2024/01/26 12:32:26;;;;;;;4.35;1.92;;;;;;;9.06;53.75;101308.22;5574932;31;34092;-57
2024/01/26 12:35:32;;;;;;;5.87;2.47;;;;;;;9.11;52.05;101305.66;5573992;31;34407;-57
2024/01/26 12:38:34;;;;;;;4.20;2.30;;;;;;;9.07;53.64;101296.47;5583445;31;33744;-57
2024/01/26 12:41:37;;;;;;;4.25;1.75;;;;;;;9.15;53.10;101294.19;5574473;31;33533;-57
2024/01/26 12:44:40;;;;;;;10.23;2.00;;;;;;;9.32;56.06;101291.44;5570912;31;34349;-57
2024/01/26 12:47:44;;;;;;;7.72;1.83;;;;;;;9.31;52.46;101279.12;5575604;31;34362;-57
2024/01/26 12:50:47;;;;;;;5.62;2.03;;;;;;;9.47;54.41;101276.63;5576517;31;32337;-56
2024/01/26 12:53:49;;;;;;;7.53;2.12;;;;;;;9.55;53.18;101271.66;5576457;31;33723;-55
2024/01/26 12:56:51;;;;;;;7.70;2.45;;;;;;;9.47;55.44;101266.75;5578878;31;32291;-57
2024/01/26 12:59:54;;;;;;;9.20;2.72;;;;;;;9.36;53.53;101257.78;5569817;31;33300;-56
2024/01/26 13:02:58;;;;;;;8.10;2.40;;;;;;;9.37;52.68;101256.75;5566833;31;35123;-55
2024/01/26 13:06:00;;;;;;;4.72;1.92;;;;;;;9.30;52.89;101250.75;5574872;31;33501;-57
2024/01/26 13:09:06;;;;;;;7.32;2.40;;;;;;;9.21;52.96;101246.13;5572424;31;33522;-55
2024/01/26 13:12:09;;;;;;;8.18;2.50;;;;;;;9.26;53.14;101254.19;5573815;31;33626;-56
2024/01/26 13:15:13;;;;;;;4.53;1.75;;;;;;;9.12;51.87;101256.44;5577390;31;33770;-56
2024/01/26 13:18:16;;;;;;;6.85;1.90;;;;;;;9.07;53.67;101257.19;5571668;31;34399;-56
2024/01/26 13:21:29;;;;;;;8.35;1.80;;;;;;;9.05;51.92;101264.63;5569246;31;34314;-57
2024/01/26 13:24:32;;;;;;;5.97;1.85;;;;;;;9.11;51.42;101252.94;5578587;31;33651;-56
2024/01/26 13:27:34;;;;;;;5.12;1.80;;;;;;;9.18;50.69;101250.09;5575001;31;33784;-57
2024/01/26 13:30:37;;;;;;;5.53;1.67;;;;;;;9.15;50.74;101254.06;5585176;31;33643;-56
2024/01/26 13:33:39;;;;;;;4.75;1.87;;;;;;;9.23;50.53;101254.69;5585886;31;34377;-56
2024/01/26 13:36:44;;;;;;;8.23;2.20;;;;;;;9.28;49.69;101250.22;5576416;31;33740;-55
2024/01/26 13:39:46;;;;;;;6.62;2.28;;;;;;;9.25;49.72;101253.38;5575813;31;33639;-56
2024/01/26 13:42:48;;;;;;;6.43;1.67;;;;;;;9.27;49.22;101261.97;5575684;31;33258;-55
2024/01/26 13:45:53;;;;;;;5.00;1.58;;;;;;;9.30;49.02;101257.97;5582665;31;33821;-55
2024/01/26 13:48:56;;;;;;;5.65;1.65;;;;;;;9.38;59.54;101257.53;5580273;31;33724;-56
2024/01/26 13:51:59;;;;;;;7.12;1.87;;;;;;;9.54;50.29;101253.16;5569844;32;33611;-55
2024/01/26 13:55:02;;;;;;;8.65;1.80;;;;;;;9.50;48.86;101252.03;5570267;32;33754;-55
2024/01/26 13:58:05;;;;;;;5.55;1.85;;;;;;;9.34;48.86;101243.84;5570104;31;33690;-55
2024/01/26 14:01:07;;;;;;;7.80;3.15;;;;;;;9.34;49.59;101249.22;5569480;31;34469;-56
2024/01/26 14:04:10;;;;;;;7.47;2.50;;;;;;;9.36;51.24;101252.44;5577451;31;33300;-56
2024/01/26 14:07:13;;;;;;;7.65;2.75;;;;;;;9.28;49.71;101241.38;5581342;31;33600;-56
2024/01/26 14:10:15;;;;;;;7.95;1.95;;;;;;;9.30;50.86;101240.03;5569928;32;33714;-56
2024/01/26 14:13:18;;;;;;;8.55;2.17;;;;;;;9.36;50.63;101252.44;5584862;31;34098;-57
2024/01/26 14:16:20;;;;;;;6.12;2.08;;;;;;;9.36;50.25;101256.97;5586495;31;33688;-56
2024/01/26 14:19:22;;;;;;;8.02;2.22;;;;;;;9.23;51.92;101263.50;5578017;31;33737;-56
2024/01/26 14:22:25;;;;;;;6.00;2.00;;;;;;;9.17;52.86;101262.66;5586802;31;34313;-56
2024/01/26 14:25:27;;;;;;;9.68;2.80;;;;;;;9.25;53.05;101255.25;5584713;31;33656;-58
2024/01/26 14:28:31;;;;;;;6.70;2.55;;;;;;;9.28;52.52;101260.09;5578206;31;32228;-56
2024/01/26 14:31:35;;;;;;;7.10;2.60;;;;;;;9.48;52.39;101251.50;5575207;31;33748;-56
2024/01/26 14:34:38;;;;;;;9.82;2.67;;;;;;;9.41;52.47;101254.37;5578969;31;33623;-55
2024/01/26 14:37:41;;;;;;;6.40;2.30;;;;;;;9.44;53.78;101253.03;5575615;31;33754;-56
2024/01/26 14:40:44;;;;;;;4.97;2.10;;;;;;;9.46;53.31;101248.25;5580021;31;33741;-56
2024/01/26 14:43:46;;;;;;;9.05;2.42;;;;;;;9.60;54.89;101236.06;5579369;31;34449;-55
2024/01/26 14:46:53;;;;;;;10.88;2.67;;;;;;;9.51;55.09;101248.31;5577277;31;33703;-56
2024/01/26 14:49:58;;;;;;;6.12;2.05;;;;;;;9.31;53.02;101239.00;5573389;31;34457;-55
2024/01/26 14:53:01;;;;;;;8.88;2.90;;;;;;;9.18;53.69;101242.88;5576683;31;33723;-55
2024/01/26 14:56:06;;;;;;;4.25;2.00;;;;;;;9.24;54.29;101234.88;5579611;31;33654;-55
2024/01/26 14:59:08;;;;;;;8.68;3.05;;;;;;;9.32;54.23;101232.59;5574408;31;33737;-56
2024/01/26 15:02:11;;;;;;;7.12;2.47;;;;;;;9.33;53.66;101231.50;5583193;31;33702;-55
2024/01/26 15:05:13;;;;;;;7.78;2.50;;;;;;;9.18;53.30;101234.03;5588302;31;34431;-55
2024/01/26 15:08:16;;;;;;;6.45;3.20;;;;;;;9.22;56.52;101232.47;5589490;31;34339;-56
2024/01/26 15:11:18;;;;;;;6.80;2.42;;;;;;;9.06;53.78;101238.69;5589477;31;34363;-56
2024/01/26 15:14:20;;;;;;;5.32;2.50;;;;;;;9.07;53.71;101229.59;5588255;31;34381;-56
2024/01/26 15:17:23;;;;;;;8.75;2.67;;;;;;;9.13;54.22;101234.75;5588724;31;33746;-55
2024/01/26 15:20:25;;;;;;;5.22;2.62;;;;;;;9.15;54.61;101224.63;5589357;31;33716;-56
2024/01/26 15:23:28;;;;;;;8.50;3.03;;;;;;;9.23;54.58;101222.56;5584377;31;33788;-55
2024/01/26 15:26:30;;;;;;;6.85;3.10;;;;;;;9.28;56.83;101214.62;5569819;32;33723;-55
2024/01/26 15:29:33;;;;;;;11.00;3.45;;;;;;;9.25;55.67;101213.25;5569552;32;34410;-56
2024/01/26 15:32:36;;;;;;;12.37;3.33;;;;;;;9.25;56.09;101225.81;5569685;32;33793;-56
2024/01/26 15:35:38;;;;;;;8.70;2.80;;;;;;;9.24;56.43;101210.81;5569986;31;33760;-56
2024/01/26 15:38:41;;;;;;;6.20;3.30;;;;;;;9.29;56.89;101217.03;5576587;31;35151;-56
2024/01/26 15:41:43;;;;;;;8.38;3.25;;;;;;;9.28;56.80;101215.41;5586495;31;34459;-56
2024/01/26 15:44:47;;;;;;;10.27;3.97;;;;;;;9.29;58.40;101214.34;5581074;31;33604;-56
2024/01/26 15:47:49;;;;;;;7.68;3.58;;;;;;;9.27;58.84;101213.81;5588898;31;34453;-55
2024/01/26 15:50:52;;;;;;;10.80;4.18;;;;;;;9.12;59.49;101210.97;5588890;31;34301;-56
2024/01/26 15:53:54;;;;;;;6.95;3.80;;;;;;;9.10;59.14;101219.22;5588205;31;33708;-55
2024/01/26 15:56:58;;;;;;;9.75;4.00;;;;;;;9.29;61.72;101221.56;5589040;31;34390;-56
2024/01/26 16:00:01;;;;;;;10.20;4.20;;;;;;;9.08;59.31;101216.00;5588900;31;33742;-56
2024/01/26 16:03:05;;;;;;;10.70;4.78;;;;;;;9.07;62.39;101216.22;5588186;31;35163;-55
2024/01/26 16:06:08;;;;;;;13.07;4.45;;;;;;;9.07;60.95;101216.22;5588752;31;34332;-56
2024/01/26 16:09:15;;;;;;;10.07;4.40;;;;;;;9.01;60.82;101214.56;5585753;31;33761;-55
2024/01/26 16:12:18;;;;;;;8.43;4.45;;;;;;;9.02;61.26;101213.50;5587741;31;33613;-56
2024/01/26 16:15:20;;;;;;;12.68;5.25;;;;;;;9.10;67.33;101211.19;5589107;31;33765;-56
2024/01/26 16:18:24;;;;;;;10.63;4.00;;;;;;;8.89;61.83;101202.13;5588864;31;33626;-56
2024/01/26 16:21:26;;;;;;;15.32;4.87;;;;;;;8.93;66.63;101181.03;5588826;31;34326;-57
2024/01/26 16:24:29;;;;;;;11.38;5.05;;;;;;;8.90;61.61;101176.19;5588528;31;33794;-57
2024/01/26 16:27:31;;;;;;;8.20;4.15;;;;;;;8.92;62.09;101190.13;5588975;31;34296;-57
2024/01/26 16:30:33;;;;;;;16.80;5.05;;;;;;;8.84;64.22;101195.87;5588685;31;33274;-57
2024/01/26 16:33:36;;;;;;;18.08;5.30;;;;;;;8.72;64.07;101184.53;5588524;31;34261;-57
2024/01/26 16:36:39;;;;;;;17.23;5.03;;;;;;;8.74;64.63;101167.19;5588594;31;34580;-56
